sensor_id;sensor_type;location;lat;lon;timestamp;temperature;humidity
68235;DHT22;55052;52.056;5.296;2023-04-25T00:01:20;7.90;85.90
68235;DHT22;55052;52.056;5.296;2023-04-25T00:03:48;7.90;85.90
68235;DHT22;55052;52.056;5.296;2023-04-25T00:06:16;7.90;85.90
68235;DHT22;55052;52.056;5.296;2023-04-25T00:08:44;7.90;85.80
68235;DHT22;55052;52.056;5.296;2023-04-25T00:11:11;7.90;85.90
68235;DHT22;55052;52.056;5.296;2023-04-25T00:13:37;7.90;85.90
68235;DHT22;55052;52.056;5.296;2023-04-25T00:16:08;7.90;86.00
68235;DHT22;55052;52.056;5.296;2023-04-25T00:18:35;7.90;86.00
68235;DHT22;55052;52.056;5.296;2023-04-25T00:21:02;7.90;86.00
68235;DHT22;55052;52.056;5.296;2023-04-25T00:23:32;7.80;86.00
68235;DHT22;55052;52.056;5.296;2023-04-25T00:25:59;7.80;86.00
68235;DHT22;55052;52.056;5.296;2023-04-25T00:28:26;7.80;86.20
68235;DHT22;55052;52.056;5.296;2023-04-25T00:30:53;7.80;86.30
68235;DHT22;55052;52.056;5.296;2023-04-25T00:33:20;7.80;86.30
68235;DHT22;55052;52.056;5.296;2023-04-25T00:35:47;7.80;86.50
68235;DHT22;55052;52.056;5.296;2023-04-25T00:38:14;7.80;86.50
68235;DHT22;55052;52.056;5.296;2023-04-25T00:40:41;7.70;86.50
68235;DHT22;55052;52.056;5.296;2023-04-25T00:43:10;7.70;86.40
68235;DHT22;55052;52.056;5.296;2023-04-25T00:45:38;7.80;86.50
68235;DHT22;55052;52.056;5.296;2023-04-25T00:48:06;7.70;86.40
68235;DHT22;55052;52.056;5.296;2023-04-25T00:50:34;7.70;86.30
68235;DHT22;55052;52.056;5.296;2023-04-25T00:53:01;7.70;86.30
68235;DHT22;55052;52.056;5.296;2023-04-25T00:55:30;7.70;86.40
68235;DHT22;55052;52.056;5.296;2023-04-25T00:57:58;7.70;86.40
68235;DHT22;55052;52.056;5.296;2023-04-25T01:00:25;7.60;86.30
68235;DHT22;55052;52.056;5.296;2023-04-25T01:02:52;7.60;86.30
68235;DHT22;55052;52.056;5.296;2023-04-25T01:05:19;7.60;86.20
68235;DHT22;55052;52.056;5.296;2023-04-25T01:07:46;7.60;86.20
68235;DHT22;55052;52.056;5.296;2023-04-25T01:10:13;7.60;86.30
68235;DHT22;55052;52.056;5.296;2023-04-25T01:12:40;7.50;87.00
68235;DHT22;55052;52.056;5.296;2023-04-25T01:15:08;7.50;86.20
68235;DHT22;55052;52.056;5.296;2023-04-25T01:17:35;7.50;86.20
68235;DHT22;55052;52.056;5.296;2023-04-25T01:20:05;7.50;86.20
68235;DHT22;55052;52.056;5.296;2023-04-25T01:22:34;7.50;86.10
68235;DHT22;55052;52.056;5.296;2023-04-25T01:25:01;7.40;86.10
68235;DHT22;55052;52.056;5.296;2023-04-25T01:27:29;7.40;86.10
68235;DHT22;55052;52.056;5.296;2023-04-25T01:29:56;7.40;86.10
68235;DHT22;55052;52.056;5.296;2023-04-25T01:32:23;7.30;86.10
68235;DHT22;55052;52.056;5.296;2023-04-25T01:34:50;7.30;86.10
68235;DHT22;55052;52.056;5.296;2023-04-25T01:37:17;7.30;86.20
68235;DHT22;55052;52.056;5.296;2023-04-25T01:39:44;7.30;86.20
68235;DHT22;55052;52.056;5.296;2023-04-25T01:42:12;7.30;86.30
68235;DHT22;55052;52.056;5.296;2023-04-25T01:44:39;7.20;86.20
68235;DHT22;55052;52.056;5.296;2023-04-25T01:47:06;7.20;86.20
68235;DHT22;55052;52.056;5.296;2023-04-25T01:49:33;7.20;86.20
68235;DHT22;55052;52.056;5.296;2023-04-25T01:52:00;7.20;86.20
68235;DHT22;55052;52.056;5.296;2023-04-25T01:54:27;7.10;86.20
68235;DHT22;55052;52.056;5.296;2023-04-25T01:56:57;7.10;86.20
68235;DHT22;55052;52.056;5.296;2023-04-25T01:59:23;7.10;86.30
68235;DHT22;55052;52.056;5.296;2023-04-25T02:01:51;7.10;86.20
68235;DHT22;55052;52.056;5.296;2023-04-25T02:04:18;7.00;86.20
68235;DHT22;55052;52.056;5.296;2023-04-25T02:06:45;7.00;86.20
68235;DHT22;55052;52.056;5.296;2023-04-25T02:09:12;7.00;86.20
68235;DHT22;55052;52.056;5.296;2023-04-25T02:11:39;7.00;86.20
68235;DHT22;55052;52.056;5.296;2023-04-25T02:14:06;6.90;86.30
68235;DHT22;55052;52.056;5.296;2023-04-25T02:16:32;6.90;86.30
68235;DHT22;55052;52.056;5.296;2023-04-25T02:18:59;6.90;86.40
68235;DHT22;55052;52.056;5.296;2023-04-25T02:21:26;6.90;86.40
68235;DHT22;55052;52.056;5.296;2023-04-25T02:23:53;6.90;86.40
68235;DHT22;55052;52.056;5.296;2023-04-25T02:26:20;6.80;86.40
68235;DHT22;55052;52.056;5.296;2023-04-25T02:28:50;6.80;86.40
68235;DHT22;55052;52.056;5.296;2023-04-25T02:31:17;6.80;86.40
68235;DHT22;55052;52.056;5.296;2023-04-25T02:33:44;6.80;86.40
68235;DHT22;55052;52.056;5.296;2023-04-25T02:36:11;6.80;86.40
68235;DHT22;55052;52.056;5.296;2023-04-25T02:38:38;6.80;86.40
68235;DHT22;55052;52.056;5.296;2023-04-25T02:41:05;6.70;86.30
68235;DHT22;55052;52.056;5.296;2023-04-25T02:43:32;6.70;86.30
68235;DHT22;55052;52.056;5.296;2023-04-25T02:45:59;6.70;86.30
68235;DHT22;55052;52.056;5.296;2023-04-25T02:48:26;6.70;86.30
68235;DHT22;55052;52.056;5.296;2023-04-25T02:50:52;6.60;86.20
68235;DHT22;55052;52.056;5.296;2023-04-25T02:53:19;6.60;86.20
68235;DHT22;55052;52.056;5.296;2023-04-25T02:55:46;6.60;86.30
68235;DHT22;55052;52.056;5.296;2023-04-25T02:58:13;6.50;86.20
68235;DHT22;55052;52.056;5.296;2023-04-25T03:00:40;6.50;86.20
68235;DHT22;55052;52.056;5.296;2023-04-25T03:03:06;6.40;86.20
68235;DHT22;55052;52.056;5.296;2023-04-25T03:05:33;6.40;86.30
68235;DHT22;55052;52.056;5.296;2023-04-25T03:08:00;6.40;86.30
68235;DHT22;55052;52.056;5.296;2023-04-25T03:10:27;6.40;86.40
68235;DHT22;55052;52.056;5.296;2023-04-25T03:12:54;6.40;86.40
68235;DHT22;55052;52.056;5.296;2023-04-25T03:15:20;6.40;86.60
68235;DHT22;55052;52.056;5.296;2023-04-25T03:17:47;6.30;86.50
68235;DHT22;55052;52.056;5.296;2023-04-25T03:20:14;6.30;86.60
68235;DHT22;55052;52.056;5.296;2023-04-25T03:22:44;6.30;86.70
68235;DHT22;55052;52.056;5.296;2023-04-25T03:25:11;6.30;86.90
68235;DHT22;55052;52.056;5.296;2023-04-25T03:27:38;6.30;86.90
68235;DHT22;55052;52.056;5.296;2023-04-25T03:30:05;6.30;87.00
68235;DHT22;55052;52.056;5.296;2023-04-25T03:32:33;6.30;87.00
68235;DHT22;55052;52.056;5.296;2023-04-25T03:35:00;6.30;87.30
68235;DHT22;55052;52.056;5.296;2023-04-25T03:37:27;6.30;87.30
68235;DHT22;55052;52.056;5.296;2023-04-25T03:39:54;6.40;87.50
68235;DHT22;55052;52.056;5.296;2023-04-25T03:42:21;6.40;87.60
68235;DHT22;55052;52.056;5.296;2023-04-25T03:44:50;6.40;87.70
68235;DHT22;55052;52.056;5.296;2023-04-25T03:47:17;6.40;87.80
68235;DHT22;55052;52.056;5.296;2023-04-25T03:49:44;6.40;87.90
68235;DHT22;55052;52.056;5.296;2023-04-25T03:52:11;6.40;88.10
68235;DHT22;55052;52.056;5.296;2023-04-25T03:54:38;6.40;88.00
68235;DHT22;55052;52.056;5.296;2023-04-25T03:57:04;6.50;88.20
68235;DHT22;55052;52.056;5.296;2023-04-25T03:59:31;6.50;88.20
68235;DHT22;55052;52.056;5.296;2023-04-25T04:01:58;6.50;88.20
68235;DHT22;55052;52.056;5.296;2023-04-25T04:04:25;6.50;88.10
68235;DHT22;55052;52.056;5.296;2023-04-25T04:06:52;6.50;88.10
68235;DHT22;55052;52.056;5.296;2023-04-25T04:09:19;6.60;88.10
68235;DHT22;55052;52.056;5.296;2023-04-25T04:11:47;6.60;88.10
68235;DHT22;55052;52.056;5.296;2023-04-25T04:14:13;6.60;87.90
68235;DHT22;55052;52.056;5.296;2023-04-25T04:16:41;6.60;87.80
68235;DHT22;55052;52.056;5.296;2023-04-25T04:19:08;6.60;87.70
68235;DHT22;55052;52.056;5.296;2023-04-25T04:21:34;6.60;87.70
68235;DHT22;55052;52.056;5.296;2023-04-25T04:24:01;6.60;87.70
68235;DHT22;55052;52.056;5.296;2023-04-25T04:26:28;6.60;87.60
68235;DHT22;55052;52.056;5.296;2023-04-25T04:28:55;6.70;87.50
68235;DHT22;55052;52.056;5.296;2023-04-25T04:31:22;6.70;87.40
68235;DHT22;55052;52.056;5.296;2023-04-25T04:33:50;6.70;87.30
68235;DHT22;55052;52.056;5.296;2023-04-25T04:36:18;6.70;87.10
68235;DHT22;55052;52.056;5.296;2023-04-25T04:38:48;6.70;87.10
68235;DHT22;55052;52.056;5.296;2023-04-25T04:41:15;6.70;87.00
68235;DHT22;55052;52.056;5.296;2023-04-25T04:43:42;6.60;86.90
68235;DHT22;55052;52.056;5.296;2023-04-25T04:46:09;6.60;86.90
68235;DHT22;55052;52.056;5.296;2023-04-25T04:48:37;6.60;86.80
68235;DHT22;55052;52.056;5.296;2023-04-25T04:51:03;6.70;86.80
68235;DHT22;55052;52.056;5.296;2023-04-25T04:53:30;6.70;86.80
68235;DHT22;55052;52.056;5.296;2023-04-25T04:55:57;6.70;86.70
68235;DHT22;55052;52.056;5.296;2023-04-25T04:58:24;6.70;86.60
68235;DHT22;55052;52.056;5.296;2023-04-25T05:00:50;6.70;86.60
68235;DHT22;55052;52.056;5.296;2023-04-25T05:03:17;6.70;86.60
68235;DHT22;55052;52.056;5.296;2023-04-25T05:05:44;6.70;87.50
68235;DHT22;55052;52.056;5.296;2023-04-25T05:08:12;6.80;86.70
68235;DHT22;55052;52.056;5.296;2023-04-25T05:10:39;6.80;86.60
68235;DHT22;55052;52.056;5.296;2023-04-25T05:13:06;6.80;86.60
68235;DHT22;55052;52.056;5.296;2023-04-25T05:15:32;6.80;86.60
68235;DHT22;55052;52.056;5.296;2023-04-25T05:17:59;6.80;86.60
68235;DHT22;55052;52.056;5.296;2023-04-25T05:20:26;6.90;86.60
68235;DHT22;55052;52.056;5.296;2023-04-25T05:22:53;6.90;86.60
68235;DHT22;55052;52.056;5.296;2023-04-25T05:25:19;6.90;86.60
68235;DHT22;55052;52.056;5.296;2023-04-25T05:27:46;7.00;86.60
68235;DHT22;55052;52.056;5.296;2023-04-25T05:30:13;7.00;86.50
68235;DHT22;55052;52.056;5.296;2023-04-25T05:32:40;7.00;86.50
68235;DHT22;55052;52.056;5.296;2023-04-25T05:35:07;7.00;86.50
68235;DHT22;55052;52.056;5.296;2023-04-25T05:37:34;7.00;86.40
68235;DHT22;55052;52.056;5.296;2023-04-25T05:40:02;7.10;86.30
68235;DHT22;55052;52.056;5.296;2023-04-25T05:42:33;7.10;86.20
68235;DHT22;55052;52.056;5.296;2023-04-25T05:45:00;7.10;86.00
68235;DHT22;55052;52.056;5.296;2023-04-25T05:47:27;7.20;86.00
68235;DHT22;55052;52.056;5.296;2023-04-25T05:49:54;7.20;85.90
68235;DHT22;55052;52.056;5.296;2023-04-25T05:52:21;7.20;85.80
68235;DHT22;55052;52.056;5.296;2023-04-25T05:54:49;7.20;85.90
68235;DHT22;55052;52.056;5.296;2023-04-25T05:57:25;7.30;85.90
68235;DHT22;55052;52.056;5.296;2023-04-25T05:59:53;7.30;85.70
68235;DHT22;55052;52.056;5.296;2023-04-25T06:02:20;7.30;85.60
68235;DHT22;55052;52.056;5.296;2023-04-25T06:04:49;7.40;85.60
68235;DHT22;55052;52.056;5.296;2023-04-25T06:07:17;7.40;85.50
68235;DHT22;55052;52.056;5.296;2023-04-25T06:09:44;7.50;85.40
68235;DHT22;55052;52.056;5.296;2023-04-25T06:12:11;7.50;85.40
68235;DHT22;55052;52.056;5.296;2023-04-25T06:14:38;7.60;85.30
68235;DHT22;55052;52.056;5.296;2023-04-25T06:17:04;7.60;85.20
68235;DHT22;55052;52.056;5.296;2023-04-25T06:19:37;7.60;84.90
68235;DHT22;55052;52.056;5.296;2023-04-25T06:22:04;7.70;84.80
68235;DHT22;55052;52.056;5.296;2023-04-25T06:24:31;7.70;84.60
68235;DHT22;55052;52.056;5.296;2023-04-25T06:26:58;7.70;84.30
68235;DHT22;55052;52.056;5.296;2023-04-25T06:29:24;7.80;84.20
68235;DHT22;55052;52.056;5.296;2023-04-25T06:31:51;7.80;83.90
68235;DHT22;55052;52.056;5.296;2023-04-25T06:34:18;7.80;83.60
68235;DHT22;55052;52.056;5.296;2023-04-25T06:36:45;7.90;83.80
68235;DHT22;55052;52.056;5.296;2023-04-25T06:39:12;7.90;83.70
68235;DHT22;55052;52.056;5.296;2023-04-25T06:41:39;7.90;83.60
68235;DHT22;55052;52.056;5.296;2023-04-25T06:44:05;8.00;83.40
68235;DHT22;55052;52.056;5.296;2023-04-25T06:46:32;8.00;83.20
68235;DHT22;55052;52.056;5.296;2023-04-25T06:48:59;8.00;83.80
68235;DHT22;55052;52.056;5.296;2023-04-25T06:51:26;8.10;82.60
68235;DHT22;55052;52.056;5.296;2023-04-25T06:53:55;8.10;82.30
68235;DHT22;55052;52.056;5.296;2023-04-25T06:56:22;8.20;82.10
68235;DHT22;55052;52.056;5.296;2023-04-25T06:58:49;8.20;81.90
68235;DHT22;55052;52.056;5.296;2023-04-25T07:01:17;8.20;81.60
68235;DHT22;55052;52.056;5.296;2023-04-25T07:03:44;8.30;81.50
68235;DHT22;55052;52.056;5.296;2023-04-25T07:06:11;8.30;81.40
68235;DHT22;55052;52.056;5.296;2023-04-25T07:08:38;8.40;81.00
68235;DHT22;55052;52.056;5.296;2023-04-25T07:11:04;8.40;80.60
68235;DHT22;55052;52.056;5.296;2023-04-25T07:13:31;8.40;81.30
68235;DHT22;55052;52.056;5.296;2023-04-25T07:15:59;8.50;80.50
68235;DHT22;55052;52.056;5.296;2023-04-25T07:18:26;8.60;80.60
68235;DHT22;55052;52.056;5.296;2023-04-25T07:20:53;8.60;80.40
68235;DHT22;55052;52.056;5.296;2023-04-25T07:23:19;8.70;79.80
68235;DHT22;55052;52.056;5.296;2023-04-25T07:25:46;8.80;79.70
68235;DHT22;55052;52.056;5.296;2023-04-25T07:28:13;8.90;79.70
68235;DHT22;55052;52.056;5.296;2023-04-25T07:30:43;9.00;79.50
68235;DHT22;55052;52.056;5.296;2023-04-25T07:33:09;9.10;79.40
68235;DHT22;55052;52.056;5.296;2023-04-25T07:35:36;9.20;79.10
68235;DHT22;55052;52.056;5.296;2023-04-25T07:38:03;9.30;78.80
68235;DHT22;55052;52.056;5.296;2023-04-25T07:40:30;9.40;78.00
68235;DHT22;55052;52.056;5.296;2023-04-25T07:42:57;9.40;77.20
68235;DHT22;55052;52.056;5.296;2023-04-25T07:45:24;9.40;76.40
68235;DHT22;55052;52.056;5.296;2023-04-25T07:47:51;9.40;75.60
68235;DHT22;55052;52.056;5.296;2023-04-25T07:50:18;9.40;74.90
68235;DHT22;55052;52.056;5.296;2023-04-25T07:52:45;9.40;74.90
68235;DHT22;55052;52.056;5.296;2023-04-25T07:55:11;9.40;74.70
68235;DHT22;55052;52.056;5.296;2023-04-25T07:57:38;9.40;74.90
68235;DHT22;55052;52.056;5.296;2023-04-25T08:00:05;9.40;74.70
68235;DHT22;55052;52.056;5.296;2023-04-25T08:02:35;9.50;74.60
68235;DHT22;55052;52.056;5.296;2023-04-25T08:05:03;9.50;73.80
68235;DHT22;55052;52.056;5.296;2023-04-25T08:07:30;9.50;73.80
68235;DHT22;55052;52.056;5.296;2023-04-25T08:09:57;9.50;73.60
68235;DHT22;55052;52.056;5.296;2023-04-25T08:12:24;9.50;73.50
68235;DHT22;55052;52.056;5.296;2023-04-25T08:14:51;9.50;73.20
68235;DHT22;55052;52.056;5.296;2023-04-25T08:17:18;9.50;72.90
68235;DHT22;55052;52.056;5.296;2023-04-25T08:19:45;9.60;72.90
68235;DHT22;55052;52.056;5.296;2023-04-25T08:22:12;9.60;72.70
68235;DHT22;55052;52.056;5.296;2023-04-25T08:24:39;9.50;72.20
68235;DHT22;55052;52.056;5.296;2023-04-25T08:27:06;9.50;71.70
68235;DHT22;55052;52.056;5.296;2023-04-25T08:29:34;9.50;71.40
68235;DHT22;55052;52.056;5.296;2023-04-25T08:32:01;9.50;71.30
68235;DHT22;55052;52.056;5.296;2023-04-25T08:34:28;9.50;71.40
68235;DHT22;55052;52.056;5.296;2023-04-25T08:36:54;9.60;71.40
68235;DHT22;55052;52.056;5.296;2023-04-25T08:39:21;9.60;71.30
68235;DHT22;55052;52.056;5.296;2023-04-25T08:41:48;9.70;71.10
68235;DHT22;55052;52.056;5.296;2023-04-25T08:44:16;9.70;70.40
68235;DHT22;55052;52.056;5.296;2023-04-25T08:46:45;9.70;70.40
68235;DHT22;55052;52.056;5.296;2023-04-25T08:49:17;9.70;70.20
68235;DHT22;55052;52.056;5.296;2023-04-25T08:51:46;9.70;70.00
68235;DHT22;55052;52.056;5.296;2023-04-25T08:54:14;9.70;69.30
68235;DHT22;55052;52.056;5.296;2023-04-25T08:57:02;9.60;69.10
68235;DHT22;55052;52.056;5.296;2023-04-25T08:59:32;9.60;69.10
68235;DHT22;55052;52.056;5.296;2023-04-25T09:02:00;9.60;69.40
68235;DHT22;55052;52.056;5.296;2023-04-25T09:04:27;9.60;69.50
68235;DHT22;55052;52.056;5.296;2023-04-25T09:06:54;9.60;69.60
68235;DHT22;55052;52.056;5.296;2023-04-25T09:09:21;9.60;69.30
68235;DHT22;55052;52.056;5.296;2023-04-25T09:11:48;9.60;68.90
68235;DHT22;55052;52.056;5.296;2023-04-25T09:14:19;9.60;68.80
68235;DHT22;55052;52.056;5.296;2023-04-25T09:16:58;9.50;68.60
68235;DHT22;55052;52.056;5.296;2023-04-25T09:19:33;9.50;68.40
68235;DHT22;55052;52.056;5.296;2023-04-25T09:22:06;9.60;68.60
68235;DHT22;55052;52.056;5.296;2023-04-25T09:24:36;9.60;68.50
68235;DHT22;55052;52.056;5.296;2023-04-25T09:27:05;9.70;68.50
68235;DHT22;55052;52.056;5.296;2023-04-25T09:29:42;9.70;68.00
68235;DHT22;55052;52.056;5.296;2023-04-25T09:34:50;9.90;65.20
68235;DHT22;55052;52.056;5.296;2023-04-25T09:37:19;10.00;65.10
68235;DHT22;55052;52.056;5.296;2023-04-25T09:39:54;10.10;64.40
68235;DHT22;55052;52.056;5.296;2023-04-25T09:42:22;10.20;63.70
68235;DHT22;55052;52.056;5.296;2023-04-25T09:44:52;10.40;63.80
68235;DHT22;55052;52.056;5.296;2023-04-25T09:47:20;10.50;63.70
68235;DHT22;55052;52.056;5.296;2023-04-25T09:49:49;10.60;63.10
68235;DHT22;55052;52.056;5.296;2023-04-25T09:52:21;10.70;62.70
68235;DHT22;55052;52.056;5.296;2023-04-25T09:54:52;10.80;62.80
68235;DHT22;55052;52.056;5.296;2023-04-25T09:57:25;10.80;62.70
68235;DHT22;55052;52.056;5.296;2023-04-25T09:59:54;10.80;62.70
68235;DHT22;55052;52.056;5.296;2023-04-25T10:02:24;10.80;63.30
68235;DHT22;55052;52.056;5.296;2023-04-25T10:04:54;10.80;63.90
68235;DHT22;55052;52.056;5.296;2023-04-25T10:07:25;10.80;64.30
68235;DHT22;55052;52.056;5.296;2023-04-25T10:10:04;10.80;64.90
68235;DHT22;55052;52.056;5.296;2023-04-25T10:12:32;10.80;65.40
68235;DHT22;55052;52.056;5.296;2023-04-25T10:15:00;10.80;66.00
68235;DHT22;55052;52.056;5.296;2023-04-25T10:17:27;10.90;66.00
68235;DHT22;55052;52.056;5.296;2023-04-25T10:19:55;10.90;65.90
68235;DHT22;55052;52.056;5.296;2023-04-25T10:22:35;10.90;65.50
68235;DHT22;55052;52.056;5.296;2023-04-25T10:25:02;11.00;65.30
68235;DHT22;55052;52.056;5.296;2023-04-25T10:27:32;11.00;64.30
68235;DHT22;55052;52.056;5.296;2023-04-25T10:32:33;11.00;64.60
68235;DHT22;55052;52.056;5.296;2023-04-25T10:35:17;11.00;64.40
68235;DHT22;55052;52.056;5.296;2023-04-25T10:38:05;11.00;64.60
68235;DHT22;55052;52.056;5.296;2023-04-25T10:40:33;11.10;64.50
68235;DHT22;55052;52.056;5.296;2023-04-25T10:45:59;11.10;63.60
68235;DHT22;55052;52.056;5.296;2023-04-25T10:48:28;11.10;63.60
68235;DHT22;55052;52.056;5.296;2023-04-25T10:51:09;11.20;63.90
68235;DHT22;55052;52.056;5.296;2023-04-25T10:53:36;11.30;63.60
68235;DHT22;55052;52.056;5.296;2023-04-25T10:56:33;11.30;63.70
68235;DHT22;55052;52.056;5.296;2023-04-25T10:59:10;11.30;62.80
68235;DHT22;55052;52.056;5.296;2023-04-25T11:01:41;11.40;62.60
68235;DHT22;55052;52.056;5.296;2023-04-25T11:04:30;11.30;61.90
68235;DHT22;55052;52.056;5.296;2023-04-25T11:09:39;11.30;60.70
68235;DHT22;55052;52.056;5.296;2023-04-25T11:12:10;11.30;60.50
68235;DHT22;55052;52.056;5.296;2023-04-25T11:14:39;11.30;60.60
68235;DHT22;55052;52.056;5.296;2023-04-25T11:17:11;11.30;60.40
68235;DHT22;55052;52.056;5.296;2023-04-25T11:19:38;11.40;60.70
68235;DHT22;55052;52.056;5.296;2023-04-25T11:22:05;11.50;61.10
68235;DHT22;55052;52.056;5.296;2023-04-25T11:24:34;11.60;59.70
68235;DHT22;55052;52.056;5.296;2023-04-25T11:27:02;11.60;59.90
68235;DHT22;55052;52.056;5.296;2023-04-25T11:29:31;11.60;60.10
68235;DHT22;55052;52.056;5.296;2023-04-25T11:31:59;11.60;60.30
68235;DHT22;55052;52.056;5.296;2023-04-25T11:34:31;11.50;60.10
68235;DHT22;55052;52.056;5.296;2023-04-25T11:37:00;11.40;59.60
68235;DHT22;55052;52.056;5.296;2023-04-25T11:39:29;11.30;59.30
68235;DHT22;55052;52.056;5.296;2023-04-25T11:41:56;11.30;59.80
68235;DHT22;55052;52.056;5.296;2023-04-25T11:44:23;11.30;59.90
68235;DHT22;55052;52.056;5.296;2023-04-25T11:46:50;11.40;59.90
68235;DHT22;55052;52.056;5.296;2023-04-25T11:49:17;11.40;59.70
68235;DHT22;55052;52.056;5.296;2023-04-25T11:51:47;11.50;59.80
68235;DHT22;55052;52.056;5.296;2023-04-25T11:54:14;11.60;59.80
68235;DHT22;55052;52.056;5.296;2023-04-25T11:56:42;11.60;58.90
68235;DHT22;55052;52.056;5.296;2023-04-25T11:59:09;11.70;58.70
68235;DHT22;55052;52.056;5.296;2023-04-25T12:01:40;11.70;57.90
68235;DHT22;55052;52.056;5.296;2023-04-25T12:04:21;11.80;58.10
68235;DHT22;55052;52.056;5.296;2023-04-25T12:06:52;11.80;57.50
68235;DHT22;55052;52.056;5.296;2023-04-25T12:09:27;11.90;58.40
68235;DHT22;55052;52.056;5.296;2023-04-25T12:11:56;12.00;59.00
68235;DHT22;55052;52.056;5.296;2023-04-25T12:14:27;12.00;58.70
68235;DHT22;55052;52.056;5.296;2023-04-25T12:16:56;11.90;59.70
68235;DHT22;55052;52.056;5.296;2023-04-25T12:19:24;11.90;58.70
68235;DHT22;55052;52.056;5.296;2023-04-25T12:21:52;11.90;58.40
68235;DHT22;55052;52.056;5.296;2023-04-25T12:24:25;11.90;58.20
68235;DHT22;55052;52.056;5.296;2023-04-25T12:27:04;11.90;58.70
68235;DHT22;55052;52.056;5.296;2023-04-25T12:29:32;11.90;58.30
68235;DHT22;55052;52.056;5.296;2023-04-25T12:32:15;11.90;58.00
68235;DHT22;55052;52.056;5.296;2023-04-25T12:34:42;11.90;57.30
68235;DHT22;55052;52.056;5.296;2023-04-25T12:37:09;11.80;56.40
68235;DHT22;55052;52.056;5.296;2023-04-25T12:39:36;11.80;56.30
68235;DHT22;55052;52.056;5.296;2023-04-25T12:42:03;11.80;56.00
68235;DHT22;55052;52.056;5.296;2023-04-25T12:44:33;11.80;55.40
68235;DHT22;55052;52.056;5.296;2023-04-25T12:47:00;11.80;54.00
68235;DHT22;55052;52.056;5.296;2023-04-25T12:49:27;11.70;55.90
68235;DHT22;55052;52.056;5.296;2023-04-25T12:51:54;11.70;55.00
68235;DHT22;55052;52.056;5.296;2023-04-25T12:54:21;11.60;54.80
68235;DHT22;55052;52.056;5.296;2023-04-25T12:56:48;11.70;55.20
68235;DHT22;55052;52.056;5.296;2023-04-25T12:59:15;11.60;55.00
68235;DHT22;55052;52.056;5.296;2023-04-25T13:01:41;11.70;55.40
68235;DHT22;55052;52.056;5.296;2023-04-25T13:04:09;11.80;56.10
68235;DHT22;55052;52.056;5.296;2023-04-25T13:06:36;11.80;55.40
68235;DHT22;55052;52.056;5.296;2023-04-25T13:09:03;12.00;55.90
68235;DHT22;55052;52.056;5.296;2023-04-25T13:11:30;12.10;55.10
68235;DHT22;55052;52.056;5.296;2023-04-25T13:13:58;12.10;55.10
68235;DHT22;55052;52.056;5.296;2023-04-25T13:16:25;12.10;55.20
68235;DHT22;55052;52.056;5.296;2023-04-25T13:18:52;12.10;55.30
68235;DHT22;55052;52.056;5.296;2023-04-25T13:21:18;12.00;55.10
68235;DHT22;55052;52.056;5.296;2023-04-25T13:23:45;12.00;54.10
68235;DHT22;55052;52.056;5.296;2023-04-25T13:26:13;12.00;54.10
68235;DHT22;55052;52.056;5.296;2023-04-25T13:28:40;12.00;55.00
68235;DHT22;55052;52.056;5.296;2023-04-25T13:31:10;12.20;54.90
68235;DHT22;55052;52.056;5.296;2023-04-25T13:33:37;12.20;55.00
68235;DHT22;55052;52.056;5.296;2023-04-25T13:36:04;12.30;54.90
68235;DHT22;55052;52.056;5.296;2023-04-25T13:38:30;12.50;53.80
68235;DHT22;55052;52.056;5.296;2023-04-25T13:40:57;12.60;53.50
68235;DHT22;55052;52.056;5.296;2023-04-25T13:43:24;12.90;52.70
68235;DHT22;55052;52.056;5.296;2023-04-25T13:45:51;13.10;52.80
68235;DHT22;55052;52.056;5.296;2023-04-25T13:48:18;13.40;49.10
68235;DHT22;55052;52.056;5.296;2023-04-25T13:50:46;13.70;48.80
68235;DHT22;55052;52.056;5.296;2023-04-25T13:53:13;14.00;49.70
68235;DHT22;55052;52.056;5.296;2023-04-25T13:55:40;14.40;50.00
68235;DHT22;55052;52.056;5.296;2023-04-25T13:58:07;14.70;50.00
68235;DHT22;55052;52.056;5.296;2023-04-25T14:00:38;15.00;48.40
68235;DHT22;55052;52.056;5.296;2023-04-25T14:03:06;15.20;48.70
68235;DHT22;55052;52.056;5.296;2023-04-25T14:05:37;15.30;48.20
68235;DHT22;55052;52.056;5.296;2023-04-25T14:08:06;15.40;47.50
68235;DHT22;55052;52.056;5.296;2023-04-25T14:10:33;15.50;47.90
68235;DHT22;55052;52.056;5.296;2023-04-25T14:13:01;15.70;47.10
68235;DHT22;55052;52.056;5.296;2023-04-25T14:15:33;15.80;46.80
68235;DHT22;55052;52.056;5.296;2023-04-25T14:18:00;15.90;46.60
68235;DHT22;55052;52.056;5.296;2023-04-25T14:20:28;16.00;45.30
68235;DHT22;55052;52.056;5.296;2023-04-25T14:22:55;15.90;44.90
68235;DHT22;55052;52.056;5.296;2023-04-25T14:25:24;15.80;45.00
68235;DHT22;55052;52.056;5.296;2023-04-25T14:27:51;15.80;45.00
68235;DHT22;55052;52.056;5.296;2023-04-25T14:30:18;15.70;45.70
68235;DHT22;55052;52.056;5.296;2023-04-25T14:32:46;15.70;46.40
68235;DHT22;55052;52.056;5.296;2023-04-25T14:35:13;15.60;46.50
68235;DHT22;55052;52.056;5.296;2023-04-25T14:37:40;15.30;46.40
68235;DHT22;55052;52.056;5.296;2023-04-25T14:40:07;15.00;46.70
68235;DHT22;55052;52.056;5.296;2023-04-25T14:42:39;14.70;46.90
68235;DHT22;55052;52.056;5.296;2023-04-25T14:45:07;14.30;46.90
68235;DHT22;55052;52.056;5.296;2023-04-25T14:47:36;14.00;47.60
68235;DHT22;55052;52.056;5.296;2023-04-25T14:50:04;13.70;47.80
68235;DHT22;55052;52.056;5.296;2023-04-25T14:52:31;13.50;48.50
68235;DHT22;55052;52.056;5.296;2023-04-25T14:54:58;13.30;49.10
68235;DHT22;55052;52.056;5.296;2023-04-25T14:57:27;13.30;49.60
68235;DHT22;55052;52.056;5.296;2023-04-25T14:59:53;13.30;50.30
68235;DHT22;55052;52.056;5.296;2023-04-25T15:02:21;13.40;51.20
68235;DHT22;55052;52.056;5.296;2023-04-25T15:04:48;13.60;51.30
68235;DHT22;55052;52.056;5.296;2023-04-25T15:07:15;13.70;50.70
68235;DHT22;55052;52.056;5.296;2023-04-25T15:09:44;13.80;50.90
68235;DHT22;55052;52.056;5.296;2023-04-25T15:12:11;13.90;50.70
68235;DHT22;55052;52.056;5.296;2023-04-25T15:14:38;14.10;49.90
68235;DHT22;55052;52.056;5.296;2023-04-25T15:17:05;14.20;48.80
68235;DHT22;55052;52.056;5.296;2023-04-25T15:19:32;14.40;48.70
68235;DHT22;55052;52.056;5.296;2023-04-25T15:21:59;14.60;48.30
68235;DHT22;55052;52.056;5.296;2023-04-25T15:24:28;14.60;47.30
68235;DHT22;55052;52.056;5.296;2023-04-25T15:26:55;14.80;48.00
68235;DHT22;55052;52.056;5.296;2023-04-25T15:29:22;14.90;47.90
68235;DHT22;55052;52.056;5.296;2023-04-25T15:31:49;15.00;47.50
68235;DHT22;55052;52.056;5.296;2023-04-25T15:34:16;15.00;46.50
68235;DHT22;55052;52.056;5.296;2023-04-25T15:36:43;14.80;46.50
68235;DHT22;55052;52.056;5.296;2023-04-25T15:39:09;14.60;46.90
68235;DHT22;55052;52.056;5.296;2023-04-25T15:41:37;14.50;47.60
68235;DHT22;55052;52.056;5.296;2023-04-25T15:44:04;14.50;48.00
68235;DHT22;55052;52.056;5.296;2023-04-25T15:46:31;14.60;48.30
68235;DHT22;55052;52.056;5.296;2023-04-25T15:48:58;14.60;47.90
68235;DHT22;55052;52.056;5.296;2023-04-25T15:51:26;14.50;46.60
68235;DHT22;55052;52.056;5.296;2023-04-25T15:53:53;14.50;46.40
68235;DHT22;55052;52.056;5.296;2023-04-25T15:56:20;14.50;46.20